createdAt,value
2023-09-16T00:01:30.891Z,2.60
2023-09-16T00:04:25.101Z,3.00
2023-09-16T00:10:09.466Z,2.80
2023-09-16T00:13:02.212Z,2.60
2023-09-16T00:15:55.804Z,2.80
2023-09-16T00:18:48.412Z,2.40
2023-09-16T00:21:41.594Z,2.80
2023-09-16T00:24:33.843Z,2.60
2023-09-16T00:27:26.714Z,2.30
2023-09-16T00:30:19.052Z,2.80
2023-09-16T00:33:11.364Z,2.20
2023-09-16T00:36:03.557Z,2.60
2023-09-16T00:38:55.856Z,2.60
2023-09-16T00:41:34.146Z,2.40
2023-09-16T00:44:26.388Z,2.80
2023-09-16T00:47:18.601Z,2.70
2023-09-16T00:50:14.019Z,2.50
2023-09-16T00:53:07.075Z,2.60
2023-09-16T00:55:59.494Z,2.80
2023-09-16T00:58:51.993Z,2.60
2023-09-16T01:01:51.322Z,2.90
2023-09-16T01:04:44.825Z,2.80
2023-09-16T01:07:38.297Z,3.10
2023-09-16T01:10:30.738Z,3.40
2023-09-16T01:13:23.268Z,3.20
2023-09-16T01:16:23.901Z,2.80
2023-09-16T01:19:31.722Z,2.70
2023-09-16T01:22:24.422Z,2.40
2023-09-16T01:25:17.364Z,3.50
2023-09-16T01:28:09.945Z,2.90
2023-09-16T01:31:04.047Z,3.10
2023-09-16T01:33:58.139Z,2.90
2023-09-16T01:36:54.616Z,3.50
2023-09-16T01:39:50.782Z,3.00
2023-09-16T01:42:43.859Z,2.90
2023-09-16T01:45:44.785Z,3.00
2023-09-16T01:48:51.972Z,2.70
2023-09-16T01:51:44.344Z,3.00
2023-09-16T01:54:37.015Z,2.90
2023-09-16T01:57:29.368Z,2.80
2023-09-16T02:00:21.735Z,2.60
2023-09-16T02:03:13.952Z,2.60
2023-09-16T02:06:07.685Z,2.70
2023-09-16T02:08:59.920Z,2.70
2023-09-16T02:11:52.855Z,2.50
2023-09-16T02:14:45.379Z,2.80
2023-09-16T02:17:37.673Z,2.70
2023-09-16T02:20:29.888Z,2.30
2023-09-16T02:23:23.168Z,2.80
2023-09-16T02:26:15.413Z,2.40
2023-09-16T02:29:07.816Z,3.00
2023-09-16T02:32:00.164Z,3.30
2023-09-16T02:34:52.342Z,2.70
2023-09-16T02:37:44.562Z,3.10
2023-09-16T02:40:40.877Z,3.00
2023-09-16T02:43:33.398Z,2.60
2023-09-16T02:46:25.673Z,2.70
2023-09-16T02:49:18.013Z,3.00
2023-09-16T02:52:10.343Z,2.80
2023-09-16T02:55:02.728Z,2.60
2023-09-16T02:57:55.008Z,2.70
2023-09-16T03:00:48.526Z,2.40
2023-09-16T03:03:41.399Z,2.90
2023-09-16T03:06:33.760Z,2.60
2023-09-16T03:09:25.991Z,3.30
2023-09-16T03:12:18.199Z,3.40
2023-09-16T03:15:12.379Z,2.70
2023-09-16T03:20:53.496Z,2.80
2023-09-16T03:23:46.309Z,2.90
2023-09-16T03:26:38.583Z,2.90
2023-09-16T03:29:21.373Z,2.40
2023-09-16T03:32:13.627Z,2.70
2023-09-16T03:35:06.440Z,2.90
2023-09-16T03:37:58.638Z,2.90
2023-09-16T03:40:51.923Z,2.80
2023-09-16T03:43:44.828Z,3.20
2023-09-16T03:46:38.291Z,2.70
2023-09-16T03:49:30.527Z,2.90
2023-09-16T03:52:22.906Z,2.70
2023-09-16T03:55:15.773Z,2.70
2023-09-16T03:58:08.166Z,2.50
2023-09-16T04:00:53.620Z,2.40
2023-09-16T04:03:45.925Z,2.40
2023-09-16T04:06:38.253Z,3.40
2023-09-16T04:09:30.456Z,2.90
2023-09-16T04:12:22.700Z,2.90
2023-09-16T04:15:15.493Z,3.30
2023-09-16T04:18:08.380Z,3.10
2023-09-16T04:21:00.675Z,2.50
2023-09-16T04:23:52.911Z,3.10
2023-09-16T04:26:45.298Z,2.70
2023-09-16T04:29:37.675Z,2.40
2023-09-16T04:32:29.863Z,3.10
2023-09-16T04:35:22.595Z,2.50
2023-09-16T04:38:14.962Z,3.30
2023-09-16T04:41:07.520Z,3.40
2023-09-16T04:44:00.117Z,3.00
2023-09-16T04:46:54.413Z,3.20
2023-09-16T04:49:47.011Z,2.40
2023-09-16T04:52:39.260Z,2.90
2023-09-16T04:55:31.470Z,3.10
2023-09-16T04:58:23.650Z,2.70
2023-09-16T05:01:16.022Z,3.00
2023-09-16T05:04:08.342Z,2.70
2023-09-16T05:07:00.686Z,3.00
2023-09-16T05:09:52.924Z,3.30
2023-09-16T05:12:45.823Z,3.30
2023-09-16T05:15:38.145Z,3.20
2023-09-16T05:18:30.350Z,3.50
2023-09-16T05:21:22.774Z,3.10
2023-09-16T05:24:14.980Z,3.20
2023-09-16T05:27:08.125Z,2.80
2023-09-16T05:30:03.046Z,3.10
2023-09-16T05:32:55.846Z,3.10
2023-09-16T05:35:48.617Z,3.20
2023-09-16T05:38:40.865Z,3.80
2023-09-16T05:41:33.776Z,2.70
2023-09-16T05:44:26.010Z,3.20
2023-09-16T05:47:18.539Z,2.60
2023-09-16T05:50:11.593Z,3.00
2023-09-16T05:53:05.798Z,3.00
2023-09-16T05:58:48.851Z,3.00
2023-09-16T06:01:41.244Z,3.40
2023-09-16T06:04:34.783Z,2.90
2023-09-16T06:07:27.233Z,3.20
2023-09-16T06:10:19.520Z,2.80
2023-09-16T06:13:11.978Z,3.00
2023-09-16T06:16:05.965Z,3.30
2023-09-16T06:21:50.207Z,3.00
2023-09-16T06:24:42.463Z,2.90
2023-09-16T06:27:34.901Z,3.70
2023-09-16T06:30:27.204Z,3.50
2023-09-16T06:33:19.456Z,2.90
2023-09-16T06:36:11.755Z,3.40
2023-09-16T06:39:06.295Z,3.00
2023-09-16T06:41:58.507Z,3.40
2023-09-16T06:45:10.841Z,3.90
2023-09-16T06:48:03.186Z,3.50
2023-09-16T06:50:55.635Z,4.00
2023-09-16T06:53:47.899Z,4.50
2023-09-16T06:56:40.092Z,3.60
2023-09-16T06:59:32.412Z,3.40
2023-09-16T07:02:24.872Z,3.70
2023-09-16T07:05:17.124Z,3.40
2023-09-16T07:08:09.392Z,3.30
2023-09-16T07:11:01.608Z,3.40
2023-09-16T07:13:54.991Z,3.30
2023-09-16T07:16:47.230Z,3.50
2023-09-16T07:19:39.583Z,3.40
2023-09-16T07:22:31.796Z,2.70
2023-09-16T07:25:24.071Z,3.20
2023-09-16T07:28:16.389Z,3.30
2023-09-16T07:31:08.678Z,3.50
2023-09-16T07:34:01.125Z,3.50
2023-09-16T07:36:44.038Z,3.70
2023-09-16T07:39:16.257Z,3.40
2023-09-16T07:42:08.889Z,2.70
2023-09-16T07:45:01.094Z,3.50
2023-09-16T07:47:54.211Z,3.00
2023-09-16T07:50:46.801Z,3.10
2023-09-16T07:53:38.999Z,3.20
2023-09-16T07:56:32.041Z,2.60
2023-09-16T07:59:24.387Z,2.80
2023-09-16T08:02:16.764Z,2.70
2023-09-16T08:05:09.979Z,3.60
2023-09-16T08:08:02.235Z,3.30
2023-09-16T08:10:54.608Z,2.90
2023-09-16T08:13:47.500Z,3.20
2023-09-16T08:16:40.511Z,2.80
2023-09-16T08:19:33.126Z,2.50
2023-09-16T08:22:25.351Z,2.50
2023-09-16T08:25:17.670Z,2.30
2023-09-16T08:28:10.280Z,1.70
2023-09-16T08:31:02.550Z,1.70
2023-09-16T08:33:56.451Z,2.00
2023-09-16T08:39:39.557Z,2.10
2023-09-16T08:42:39.057Z,1.60
2023-09-16T08:45:34.825Z,1.70
2023-09-16T08:48:32.792Z,2.00
2023-09-16T08:51:11.018Z,1.80
2023-09-16T08:54:06.145Z,1.80
2023-09-16T08:56:58.849Z,2.00
2023-09-16T08:59:53.893Z,1.80
2023-09-16T09:02:47.120Z,2.00
2023-09-16T09:05:40.621Z,2.30
2023-09-16T09:08:34.151Z,2.30
2023-09-16T09:11:27.625Z,1.90
2023-09-16T09:14:16.178Z,2.00
2023-09-16T09:17:11.683Z,2.20
2023-09-16T09:20:04.857Z,2.30
2023-09-16T09:22:58.524Z,2.80
2023-09-16T09:25:50.864Z,2.00
2023-09-16T09:28:45.350Z,2.10
2023-09-16T09:31:37.766Z,2.40
2023-09-16T09:34:32.109Z,2.20
2023-09-16T09:37:24.621Z,2.10
2023-09-16T09:40:17.919Z,1.90
2023-09-16T09:43:10.557Z,2.10
2023-09-16T09:46:03.505Z,2.20
2023-09-16T09:48:56.769Z,2.30
2023-09-16T09:51:49.702Z,2.20
2023-09-16T09:57:17.021Z,2.20
2023-09-16T10:00:11.329Z,2.20
2023-09-16T10:03:04.426Z,2.00
2023-09-16T10:05:39.242Z,2.50
2023-09-16T10:08:32.632Z,2.40
2023-09-16T10:11:28.920Z,2.50
2023-09-16T10:14:09.892Z,2.20
2023-09-16T10:16:44.865Z,2.20
2023-09-16T10:22:28.127Z,2.50
2023-09-16T10:25:21.916Z,2.50
2023-09-16T10:28:14.641Z,2.60
2023-09-16T10:31:07.067Z,2.40
2023-09-16T10:36:40.661Z,2.70
2023-09-16T10:39:34.809Z,2.60
2023-09-16T10:42:29.101Z,2.50
2023-09-16T10:45:22.564Z,2.60
2023-09-16T10:48:14.767Z,2.60
2023-09-16T10:51:13.737Z,2.40
2023-09-16T10:53:52.602Z,2.70
2023-09-16T10:56:46.157Z,2.50
2023-09-16T10:59:39.455Z,2.70
2023-09-16T11:02:43.366Z,2.60
2023-09-16T11:05:39.059Z,2.80
2023-09-16T11:08:33.631Z,2.50
2023-09-16T11:11:26.662Z,2.50
2023-09-16T11:14:19.230Z,2.40
2023-09-16T11:17:16.263Z,2.20
2023-09-16T11:20:23.209Z,2.70
2023-09-16T11:23:15.832Z,2.40
2023-09-16T11:26:08.433Z,2.70
2023-09-16T11:29:00.680Z,2.40
2023-09-16T11:31:55.658Z,2.50
2023-09-16T11:34:47.967Z,2.40
2023-09-16T11:37:40.207Z,2.50
2023-09-16T11:40:34.060Z,2.50
2023-09-16T11:43:26.380Z,2.30
2023-09-16T11:46:18.753Z,2.60
2023-09-16T11:49:11.185Z,2.40
2023-09-16T11:52:03.923Z,2.50
2023-09-16T11:54:57.587Z,3.10
2023-09-16T11:57:50.762Z,2.60
2023-09-16T12:00:42.981Z,2.60
2023-09-16T12:03:36.301Z,2.70
2023-09-16T12:06:29.351Z,2.90
2023-09-16T12:09:23.935Z,2.80
2023-09-16T12:12:16.769Z,2.30
2023-09-16T12:18:00.824Z,2.70
2023-09-16T12:20:54.523Z,2.80
2023-09-16T12:23:49.250Z,3.00
2023-09-16T12:26:41.746Z,3.20
2023-09-16T12:29:35.304Z,3.10
2023-09-16T12:32:27.610Z,3.30
2023-09-16T12:35:19.982Z,3.00
2023-09-16T12:38:12.281Z,3.40
2023-09-16T12:41:05.141Z,2.80
2023-09-16T12:43:58.757Z,3.10
2023-09-16T12:46:51.165Z,3.10
2023-09-16T12:49:44.580Z,3.00
2023-09-16T12:52:27.070Z,2.80
2023-09-16T12:55:19.538Z,3.50
2023-09-16T12:58:12.970Z,3.40
2023-09-16T13:01:05.248Z,3.50
2023-09-16T13:03:57.524Z,3.30
2023-09-16T13:06:50.353Z,3.50
2023-09-16T13:09:42.717Z,3.30
2023-09-16T13:12:36.536Z,3.40
2023-09-16T13:15:29.713Z,2.90
2023-09-16T13:18:22.112Z,3.20
2023-09-16T13:21:14.396Z,3.30
2023-09-16T13:24:07.082Z,2.70
2023-09-16T13:26:59.607Z,3.00
2023-09-16T13:30:10.521Z,3.00
2023-09-16T13:33:02.763Z,2.90
2023-09-16T13:35:54.991Z,2.80
2023-09-16T13:38:48.310Z,3.10
2023-09-16T13:41:27.691Z,3.00
2023-09-16T13:44:19.877Z,3.20
2023-09-16T13:47:14.652Z,2.50
2023-09-16T13:50:08.785Z,3.20
2023-09-16T13:52:43.766Z,3.10
2023-09-16T13:55:36.372Z,3.40
2023-09-16T13:58:29.411Z,2.80
2023-09-16T14:01:25.307Z,2.60
2023-09-16T14:04:17.553Z,2.80
2023-09-16T14:07:09.958Z,2.70
2023-09-16T14:10:02.186Z,2.70
2023-09-16T14:12:54.861Z,2.70
2023-09-16T14:15:47.165Z,2.80
2023-09-16T14:18:39.322Z,2.60
2023-09-16T14:21:31.515Z,2.70
2023-09-16T14:24:24.776Z,2.60
2023-09-16T14:27:16.992Z,2.50
2023-09-16T14:30:10.986Z,2.50
2023-09-16T14:33:03.440Z,2.40
2023-09-16T14:35:55.619Z,2.30
2023-09-16T14:38:49.752Z,2.10
2023-09-16T14:41:42.235Z,2.20
2023-09-16T14:44:37.199Z,2.10
2023-09-16T14:47:29.613Z,2.10
2023-09-16T14:50:21.900Z,2.00
2023-09-16T14:53:14.124Z,2.00
2023-09-16T14:56:06.551Z,1.90
2023-09-16T14:58:58.817Z,2.20
2023-09-16T15:01:51.088Z,1.60
2023-09-16T15:04:43.301Z,2.40
2023-09-16T15:07:35.549Z,2.20
2023-09-16T15:10:27.826Z,2.40
2023-09-16T15:13:20.102Z,2.90
2023-09-16T15:16:12.412Z,2.10
2023-09-16T15:19:04.722Z,2.10
2023-09-16T15:21:57.054Z,2.30
2023-09-16T15:24:49.449Z,2.40
2023-09-16T15:27:41.671Z,2.10
2023-09-16T15:30:33.879Z,2.30
2023-09-16T15:33:26.370Z,2.10
2023-09-16T15:36:18.634Z,2.00
2023-09-16T15:39:10.875Z,2.10
2023-09-16T15:42:03.147Z,2.30
2023-09-16T15:44:38.175Z,2.10
2023-09-16T15:47:30.396Z,2.40
2023-09-16T15:50:23.130Z,2.40
2023-09-16T15:53:15.444Z,2.40
2023-09-16T15:56:07.640Z,2.30
2023-09-16T15:59:04.475Z,1.90
2023-09-16T16:01:56.749Z,2.40
2023-09-16T16:04:45.359Z,2.40
2023-09-16T16:10:30.688Z,2.30
2023-09-16T16:13:22.970Z,2.90
2023-09-16T16:16:15.948Z,2.60
2023-09-16T16:19:10.900Z,2.90
2023-09-16T16:22:04.321Z,3.40
2023-09-16T16:24:56.761Z,3.40
2023-09-16T16:27:28.960Z,2.90
2023-09-16T16:30:21.149Z,3.10
2023-09-16T16:33:13.448Z,2.80
2023-09-16T16:36:06.248Z,3.00
2023-09-16T16:38:58.440Z,3.30
2023-09-16T16:41:50.598Z,3.10
2023-09-16T16:44:42.806Z,3.50
2023-09-16T16:47:35.152Z,3.80
2023-09-16T16:50:27.555Z,4.00
2023-09-16T16:53:19.776Z,3.90
2023-09-16T16:56:11.957Z,3.90
2023-09-16T16:59:07.057Z,4.20
2023-09-16T17:02:06.414Z,3.80
2023-09-16T17:04:58.747Z,3.90
2023-09-16T17:07:51.051Z,3.90
2023-09-16T17:10:43.337Z,5.00
2023-09-16T17:13:36.745Z,5.00
2023-09-16T17:16:29.381Z,5.40
2023-09-16T17:19:21.709Z,6.00
2023-09-16T17:22:14.759Z,5.90
2023-09-16T17:25:08.358Z,5.70
2023-09-16T17:28:00.588Z,6.10
2023-09-16T17:30:53.015Z,5.50
2023-09-16T17:33:45.287Z,5.30
2023-09-16T17:36:37.898Z,6.10
2023-09-16T17:39:31.425Z,5.30
2023-09-16T17:42:23.704Z,5.70
2023-09-16T17:45:15.956Z,5.80
2023-09-16T17:48:08.750Z,6.10
2023-09-16T17:51:01.132Z,5.40
2023-09-16T17:53:53.417Z,5.60
2023-09-16T17:56:45.818Z,5.80
2023-09-16T17:59:38.044Z,5.50
2023-09-16T18:02:30.441Z,5.50
2023-09-16T18:05:22.956Z,5.90
2023-09-16T18:08:15.194Z,6.50
2023-09-16T18:10:57.563Z,6.60
2023-09-16T18:13:49.890Z,6.20
2023-09-16T18:16:42.407Z,6.90
2023-09-16T18:19:34.771Z,6.70
2023-09-16T18:22:27.143Z,7.00
2023-09-16T18:25:19.683Z,7.70
2023-09-16T18:28:11.914Z,7.20
2023-09-16T18:31:04.801Z,6.10
2023-09-16T18:33:57.108Z,7.20
2023-09-16T18:36:49.380Z,6.70
2023-09-16T18:39:42.119Z,6.40
2023-09-16T18:42:34.916Z,6.90
2023-09-16T18:45:27.080Z,6.30
2023-09-16T18:48:20.232Z,6.80
2023-09-16T18:51:12.462Z,6.90
2023-09-16T18:54:05.160Z,7.10
2023-09-16T18:56:57.581Z,6.80
2023-09-16T18:59:49.754Z,7.30
2023-09-16T19:02:42.081Z,6.10
2023-09-16T19:05:36.404Z,7.30
2023-09-16T19:08:11.563Z,6.70
2023-09-16T19:11:04.631Z,7.30
2023-09-16T19:13:57.627Z,7.20
2023-09-16T19:16:33.537Z,6.30
2023-09-16T19:19:25.882Z,6.80
2023-09-16T19:22:19.150Z,7.20
2023-09-16T19:25:12.174Z,7.90
2023-09-16T19:28:04.645Z,7.30
2023-09-16T19:30:57.047Z,7.80
2023-09-16T19:33:49.527Z,7.30
2023-09-16T19:36:41.920Z,7.40
2023-09-16T19:39:34.105Z,6.70
2023-09-16T19:42:26.489Z,7.40
2023-09-16T19:45:18.719Z,8.20
2023-09-16T19:48:11.073Z,7.60
2023-09-16T19:51:04.507Z,7.40
2023-09-16T19:53:56.760Z,7.50
2023-09-16T19:57:39.177Z,6.20
2023-09-16T20:00:35.819Z,5.90
2023-09-16T20:06:19.757Z,6.80
2023-09-16T20:09:11.970Z,6.50
2023-09-16T20:12:04.360Z,7.10
2023-09-16T20:14:56.711Z,6.40
2023-09-16T20:17:49.158Z,6.60
2023-09-16T20:20:41.794Z,7.00
2023-09-16T20:23:34.004Z,6.60
2023-09-16T20:26:26.656Z,6.10
2023-09-16T20:29:19.201Z,6.30
2023-09-16T20:32:12.409Z,6.70
2023-09-16T20:35:04.805Z,6.60
2023-09-16T20:37:59.114Z,6.40
2023-09-16T20:43:42.065Z,5.70
2023-09-16T20:46:34.390Z,6.20
2023-09-16T20:49:26.870Z,6.00
2023-09-16T20:52:19.090Z,6.20
2023-09-16T20:55:12.084Z,6.20
2023-09-16T20:58:04.953Z,6.50
2023-09-16T21:00:58.387Z,6.10
2023-09-16T21:03:50.986Z,6.00
2023-09-16T21:06:45.083Z,6.30
2023-09-16T21:09:37.302Z,6.90
2023-09-16T21:12:29.761Z,7.10
2023-09-16T21:15:22.384Z,6.80
2023-09-16T21:18:15.127Z,6.50
2023-09-16T21:21:07.614Z,7.10
2023-09-16T21:23:59.873Z,7.10
2023-09-16T21:26:52.965Z,6.80
2023-09-16T21:29:45.223Z,6.80
2023-09-16T21:32:37.710Z,6.70
2023-09-16T21:35:30.262Z,6.90
2023-09-16T21:38:22.580Z,6.80
2023-09-16T21:41:14.840Z,7.10
2023-09-16T21:44:07.532Z,6.70
2023-09-16T21:46:59.836Z,6.60
2023-09-16T21:49:52.065Z,5.90
2023-09-16T21:52:45.749Z,6.80
2023-09-16T21:55:38.098Z,6.70
2023-09-16T21:58:30.430Z,7.20
2023-09-16T22:01:22.926Z,7.00
2023-09-16T22:04:15.336Z,7.00
2023-09-16T22:07:07.739Z,7.10
2023-09-16T22:09:59.937Z,6.60
2023-09-16T22:12:52.655Z,7.10
2023-09-16T22:15:44.978Z,6.90
2023-09-16T22:18:37.179Z,6.40
2023-09-16T22:21:29.367Z,7.10
2023-09-16T22:24:21.970Z,6.40
2023-09-16T22:27:14.200Z,7.00
2023-09-16T22:30:10.819Z,7.40
2023-09-16T22:33:03.495Z,6.90
2023-09-16T22:35:55.806Z,7.20
2023-09-16T22:38:48.272Z,7.00
2023-09-16T22:41:40.827Z,6.60
2023-09-16T22:44:33.036Z,6.70
2023-09-16T22:47:25.304Z,7.30
2023-09-16T22:50:17.676Z,7.00
2023-09-16T22:53:09.975Z,6.60
2023-09-16T22:56:02.349Z,6.70
2023-09-16T22:58:54.808Z,6.50
2023-09-16T23:01:47.082Z,6.30
2023-09-16T23:04:39.328Z,7.50
2023-09-16T23:07:31.516Z,6.90
2023-09-16T23:10:12.929Z,6.80
2023-09-16T23:13:05.294Z,6.70
2023-09-16T23:15:41.709Z,7.20
2023-09-16T23:18:33.896Z,6.70
2023-09-16T23:21:26.054Z,7.30
2023-09-16T23:24:18.242Z,6.70
2023-09-16T23:27:10.496Z,6.70
2023-09-16T23:30:03.757Z,6.10
2023-09-16T23:32:55.960Z,6.50
2023-09-16T23:35:48.141Z,6.40
2023-09-16T23:38:40.321Z,6.50
2023-09-16T23:41:32.640Z,6.30
2023-09-16T23:44:24.796Z,6.40
2023-09-16T23:47:17.061Z,6.80
2023-09-16T23:50:11.581Z,6.50
2023-09-16T23:53:04.326Z,6.70
2023-09-16T23:55:56.548Z,6.10
2023-09-16T23:58:48.823Z,6.00
